Terminal Aerodrome Forecast
Issued by NWS Newport/Morehead City, NC

Home | Current Version | Previous Version | Text Only | Print | Product List | Glossary Off
Versions: 1 2 3 4 5 6 7 8 9 10 11 12

000
FTUS42 KMHX 180500 RRA
TAFEWN
TAF
KEWN 180552Z 1806/1906 31010G17KT P6SM BKN025 OVC040
     FM180830 30010KT P6SM SCT040
     FM181500 32012G20KT P6SM SKC
     FM182000 31005KT P6SM OVC150=

USA.gov is the U.S. government's official web portal to all federal, state and local government web resources and services.